Terminal Aerodrome Forecast
Issued by NWS

Home | Current Version | Previous Version | Text Only | Print | Product List | Glossary On
Versions: 1 2 3 4 5 6 7 8 9 10 11 12 13 14
642
FTUS46 KSEW 282320
TAFBLI
TAF
KBLI 282320Z 2900/2924 15014KT P6SM -SHRA SCT024 OVC070
     FM290400 16008KT P6SM VCSH OVC030
     FM290800 18004KT P6SM OVC015
     FM291600 18004KT P6SM OVC025
     FM291900 18008KT P6SM SCT025 SCT050=

USA.gov is the U.S. government's official web portal to all federal, state and local government web resources and services.